Time;durP1;ratioP1;P1;durP2;ratioP2;P2;SDS_P1;SDS_P2;PMS_P1;PMS_P2;Temp;Humidity;BMP_temperature;BMP_pressure;BME280_temperature;BME280_humidity;BME280_pressure;Samples;Min_cycle;Max_cycle;Signal;HPM_P1;HPM_P2
2023/10/27 00:02:28;;;;;;;;;;;;;;;27.59;41.41;92235.66;4985976;28;7253;-61
2023/10/27 00:05:03;;;;;;;;;;;;;;;27.61;41.43;92229.56;4975130;28;7589;-63
2023/10/27 00:07:41;;;;;;;;;;;;;;;27.61;41.50;92229.56;4983355;28;8757;-62
2023/10/27 00:10:28;;;;;;;;;;;;;;;27.59;41.84;92229.41;4987310;28;6984;-63
2023/10/27 00:13:47;;;;;;;;;;;;;;;27.58;41.81;92245.25;4984328;28;8273;-62
2023/10/27 00:16:15;;;;;;;;;;;;;;;27.57;42.06;92235.50;4909731;29;7041;-63
2023/10/27 00:18:55;;;;;;;;;;;;;;;27.53;41.67;92232.41;4904184;29;7071;-62
2023/10/27 00:21:22;;;;;;;;;;;;;;;27.55;41.81;92235.34;4915461;29;7425;-62
2023/10/27 00:23:50;;;;;;;;;;;;;;;27.53;41.82;92235.19;4929495;28;7247;-62
2023/10/27 00:26:35;;;;;;;;;;;;;;;27.53;41.98;92223.44;4940827;28;8816;-62
2023/10/27 00:29:10;;;;;;;;;;;;;;;27.52;41.96;92219.94;4929462;28;7077;-62
2023/10/27 00:31:36;;;;;;;;;;;;;;;27.49;41.83;92223.84;4948957;28;9312;-62
2023/10/27 00:34:32;;;;;;;;;;;;;;;27.51;41.44;92218.47;4944675;28;6971;-62
2023/10/27 00:37:32;;;;;;;;;;;;;;;27.49;42.11;92226.59;4956630;28;7254;-62
2023/10/27 00:40:10;;;;;;;;;;;;;;;27.48;42.20;92216.88;4896500;29;9395;-62
2023/10/27 00:42:48;;;;;;;;;;;;;;;27.47;41.90;92223.69;4901204;29;7234;-62
2023/10/27 00:45:28;;;;;;;;;;;;;;;27.46;41.76;92225.00;4880428;29;7088;-62
2023/10/27 00:48:40;;;;;;;;;;;;;;;27.44;42.08;92224.84;4893213;29;7073;-63
2023/10/27 00:51:25;;;;;;;;;;;;;;;27.42;42.39;92218.44;4855223;29;7260;-63
2023/10/27 00:53:52;;;;;;;;;;;;;;;27.41;41.91;92223.22;4843666;29;7267;-62
2023/10/27 00:56:21;;;;;;;;;;;;;;;27.40;42.10;92219.03;4837815;29;7629;-62
2023/10/27 00:59:00;;;;;;;;;;;;;;;27.40;41.92;92221.03;4834136;29;7224;-62
2023/10/27 01:01:39;;;;;;;;;;;;;;;27.38;42.08;92221.59;4836038;29;9490;-63
2023/10/27 01:04:13;;;;;;;;;;;;;;;27.38;41.68;92213.31;4840521;29;7237;-63
2023/10/27 01:06:56;;;;;;;;;;;;;;;27.38;41.57;92202.28;4822621;29;8551;-62
2023/10/27 01:09:34;;;;;;;;;;;;;;;27.38;42.12;92201.56;4840772;29;9915;-62
2023/10/27 01:12:07;;;;;;;;;;;;;;;27.37;42.07;92194.56;4849538;29;7318;-62
2023/10/27 01:14:52;;;;;;;;;;;;;;;27.35;42.16;92197.16;4896673;29;8977;-65
2023/10/27 01:17:19;;;;;;;;;;;;;;;27.34;41.83;92192.97;4958647;28;9277;-66
2023/10/27 01:19:49;;;;;;;;;;;;;;;27.31;42.25;92192.06;4954232;28;7235;-66
2023/10/27 01:22:29;;;;;;;;;;;;;;;27.33;42.18;92186.69;4953615;28;7158;-66
2023/10/27 01:25:31;;;;;;;;;;;;;;;27.33;42.29;92192.22;4956901;28;9431;-66
2023/10/27 01:27:58;;;;;;;;;;;;;;;27.31;42.12;92175.50;5003904;28;7248;-66
2023/10/27 01:30:27;;;;;;;;;;;;;;;27.30;42.33;92165.75;5049427;28;7069;-66
2023/10/27 01:33:04;;;;;;;;;;;;;;;27.29;42.37;92174.63;5034590;28;6991;-66
2023/10/27 01:35:30;;;;;;;;;;;;;;;27.27;42.10;92175.19;5044778;28;7251;-66
2023/10/27 01:37:56;;;;;;;;;;;;;;;27.27;42.23;92182.75;5036632;28;7248;-66
2023/10/27 01:40:25;;;;;;;;;;;;;;;27.25;42.36;92168.78;5045276;28;8791;-66
2023/10/27 01:42:51;;;;;;;;;;;;;;;27.22;42.29;92167.91;5036264;28;7506;-66
2023/10/27 01:45:25;;;;;;;;;;;;;;;27.23;41.71;92171.41;5052663;28;6989;-66
2023/10/27 01:48:17;;;;;;;;;;;;;;;27.20;42.51;92155.97;5036055;28;7186;-66
2023/10/27 01:50:56;;;;;;;;;;;;;;;27.15;42.26;92162.50;5049600;28;7484;-66
2023/10/27 01:53:24;;;;;;;;;;;;;;;27.15;42.80;92159.72;5025718;28;8936;-66
2023/10/27 01:56:24;;;;;;;;;;;;;;;27.11;42.58;92160.16;5049708;28;9130;-66
2023/10/27 01:59:29;;;;;;;;;;;;;;;27.11;42.72;92156.66;5018726;28;7344;-66
2023/10/27 02:02:13;;;;;;;;;;;;;;;27.10;42.72;92157.97;4987519;28;7017;-66
2023/10/27 02:04:42;;;;;;;;;;;;;;;27.09;42.91;92148.97;4991794;28;7082;-66
2023/10/27 02:07:08;;;;;;;;;;;;;;;27.07;42.78;92145.31;4991095;28;6984;-66
2023/10/27 02:09:36;;;;;;;;;;;;;;;27.06;42.71;92150.09;4990794;28;7274;-66
2023/10/27 02:12:26;;;;;;;;;;;;;;;27.05;42.76;92154.19;4973929;28;8982;-66
2023/10/27 02:15:10;;;;;;;;;;;;;;;27.03;42.19;92158.81;4987240;28;7711;-66
2023/10/27 02:17:48;;;;;;;;;;;;;;;27.01;42.77;92164.91;4989920;28;7474;-66
2023/10/27 02:20:14;;;;;;;;;;;;;;;27.01;42.75;92164.91;4995330;28;7341;-66
2023/10/27 02:23:28;;;;;;;;;;;;;;;27.00;42.16;92168.97;4992026;28;6977;-66
2023/10/27 02:26:14;;;;;;;;;;;;;;;26.96;42.97;92163.13;4949637;28;7072;-62
2023/10/27 02:28:56;;;;;;;;;;;;;;;26.98;42.69;92173.59;4954592;28;7509;-63
2023/10/27 02:31:36;;;;;;;;;;;;;;;26.96;43.04;92168.66;4970064;28;9032;-63
2023/10/27 02:34:04;;;;;;;;;;;;;;;26.98;43.12;92166.03;5024478;28;7484;-63
2023/10/27 02:37:00;;;;;;;;;;;;;;;26.96;42.57;92162.41;5037355;28;7458;-63
2023/10/27 02:39:27;;;;;;;;;;;;;;;26.96;42.61;92165.16;4916719;29;7610;-63
2023/10/27 02:42:04;;;;;;;;;;;;;;;26.96;43.05;92162.41;4932816;29;7284;-63
2023/10/27 02:44:40;;;;;;;;;;;;;;;26.92;42.89;92168.34;4921148;29;7270;-63
2023/10/27 02:47:08;;;;;;;;;;;;;;;26.94;42.84;92168.50;4927155;29;8791;-63
2023/10/27 02:49:37;;;;;;;;;;;;;;;26.92;43.07;92169.06;4932949;29;7632;-63
2023/10/27 02:52:05;;;;;;;;;;;;;;;26.91;42.89;92172.38;4932138;29;9087;-63
2023/10/27 02:55:01;;;;;;;;;;;;;;;26.92;42.84;92179.38;4933180;29;7191;-63
2023/10/27 02:57:27;;;;;;;;;;;;;;;26.91;43.05;92169.63;4897834;29;7207;-63
2023/10/27 03:00:06;;;;;;;;;;;;;;;26.90;43.07;92171.66;4881596;29;7568;-63
2023/10/27 03:02:49;;;;;;;;;;;;;;;26.86;43.05;92168.59;4887684;29;7258;-63
2023/10/27 03:05:15;;;;;;;;;;;;;;;26.90;42.82;92173.72;4891599;29;7711;-63
2023/10/27 03:07:42;;;;;;;;;;;;;;;26.86;43.03;92171.34;4907069;29;7245;-63
2023/10/27 03:10:15;;;;;;;;;;;;;;;26.88;43.09;92177.00;4908741;29;8781;-63
2023/10/27 03:12:42;;;;;;;;;;;;;;;26.87;43.03;92172.09;4894901;29;7274;-63
2023/10/27 03:15:21;;;;;;;;;;;;;;;26.86;42.89;92167.88;4890520;29;7280;-63
2023/10/27 03:17:48;;;;;;;;;;;;;;;26.87;43.10;92185.88;4935348;29;7396;-64
2023/10/27 03:20:14;;;;;;;;;;;;;;;26.84;42.97;92170.47;4953826;28;6989;-63
2023/10/27 03:22:45;;;;;;;;;;;;;;;26.86;42.96;92176.88;4925912;28;9087;-63
2023/10/27 03:25:11;;;;;;;;;;;;;;;26.87;42.86;92166.56;4954335;28;7078;-63
2023/10/27 03:27:40;;;;;;;;;;;;;;;26.87;42.83;92172.09;4938736;28;8726;-63
2023/10/27 03:30:07;;;;;;;;;;;;;;;26.84;42.78;92167.69;4935302;29;6979;-63
2023/10/27 03:33:04;;;;;;;;;;;;;;;26.84;42.94;92162.19;4941364;28;9055;-63
2023/10/27 03:35:42;;;;;;;;;;;;;;;26.85;42.83;92169.16;4964773;28;7542;-63
2023/10/27 03:38:12;;;;;;;;;;;;;;;26.84;42.89;92167.69;4967585;28;7467;-62
2023/10/27 03:40:48;;;;;;;;;;;;;;;26.79;43.38;92171.47;4971336;28;7900;-63
2023/10/27 03:43:15;;;;;;;;;;;;;;;26.80;42.99;92178.41;4965742;28;9457;-63
2023/10/27 03:45:42;;;;;;;;;;;;;;;26.77;43.46;92176.81;4974894;28;7327;-63
2023/10/27 03:48:11;;;;;;;;;;;;;;;26.78;43.01;92178.25;4975660;28;9475;-63
2023/10/27 03:50:40;;;;;;;;;;;;;;;26.78;42.77;92175.50;4963988;28;6990;-63
2023/10/27 03:53:06;;;;;;;;;;;;;;;26.77;42.80;92190.59;4960162;28;7282;-62
2023/10/27 03:56:05;;;;;;;;;;;;;;;26.79;42.87;92176.97;4981296;28;7318;-62
2023/10/27 03:58:33;;;;;;;;;;;;;;;26.79;43.42;92199.03;4918820;29;7463;-62
2023/10/27 04:01:11;;;;;;;;;;;;;;;26.76;42.88;92206.44;4932195;29;7000;-63
2023/10/27 04:03:37;;;;;;;;;;;;;;;26.79;43.16;92218.34;4928035;29;7281;-62
2023/10/27 04:06:04;;;;;;;;;;;;;;;26.79;43.13;92221.09;4938741;28;7599;-62
2023/10/27 04:08:43;;;;;;;;;;;;;;;26.78;42.95;92214.13;4913324;29;7248;-62
2023/10/27 04:11:09;;;;;;;;;;;;;;;26.78;43.34;92219.63;4945413;28;7117;-62
2023/10/27 04:13:35;;;;;;;;;;;;;;;26.77;43.22;92218.91;4993944;28;9442;-62
2023/10/27 04:16:02;;;;;;;;;;;;;;;26.77;43.05;92212.69;4995987;28;7415;-62
2023/10/27 04:18:31;;;;;;;;;;;;;;;26.78;43.02;92209.34;4983401;28;7170;-62
2023/10/27 04:20:57;;;;;;;;;;;;;;;26.76;42.89;92222.25;4990491;28;8970;-62
2023/10/27 04:23:24;;;;;;;;;;;;;;;26.74;43.11;92220.06;4992350;28;9036;-62
2023/10/27 04:25:51;;;;;;;;;;;;;;;26.76;43.15;92222.25;4989918;28;7157;-62
2023/10/27 04:28:18;;;;;;;;;;;;;;;26.73;43.28;92232.38;4995266;28;7282;-62
2023/10/27 04:30:45;;;;;;;;;;;;;;;26.75;43.45;92234.59;4996380;28;9264;-62
2023/10/27 04:33:11;;;;;;;;;;;;;;;26.73;42.96;92228.91;4994384;28;9409;-62
2023/10/27 04:35:39;;;;;;;;;;;;;;;26.73;42.90;92229.63;5052158;28;7294;-62
2023/10/27 04:38:07;;;;;;;;;;;;;;;26.73;43.23;92229.63;5035045;28;7182;-62
2023/10/27 04:40:34;;;;;;;;;;;;;;;26.73;43.29;92239.94;5034598;28;8732;-62
2023/10/27 04:43:00;;;;;;;;;;;;;;;26.72;43.22;92257.75;5042352;28;7027;-62
2023/10/27 04:45:27;;;;;;;;;;;;;;;26.73;42.97;92262.00;5006308;28;7241;-62
2023/10/27 04:47:53;;;;;;;;;;;;;;;26.69;43.09;92276.16;5040183;28;7190;-63
2023/10/27 04:50:20;;;;;;;;;;;;;;;26.71;43.18;92283.84;5032651;28;8301;-62
2023/10/27 04:52:48;;;;;;;;;;;;;;;26.71;43.08;92276.31;5031545;28;6994;-62
2023/10/27 04:55:15;;;;;;;;;;;;;;;26.70;43.09;92279.66;5033697;28;7321;-65
2023/10/27 04:57:41;;;;;;;;;;;;;;;26.69;43.02;92280.94;5032984;28;7946;-65
2023/10/27 05:00:11;;;;;;;;;;;;;;;26.70;43.15;92290.69;5027696;28;7007;-64
2023/10/27 05:02:42;;;;;;;;;;;;;;;26.68;43.11;92296.78;5026514;28;7324;-66
2023/10/27 05:05:11;;;;;;;;;;;;;;;26.66;43.18;92291.09;5046360;28;8506;-66
2023/10/27 05:07:47;;;;;;;;;;;;;;;26.63;43.30;92294.25;5049485;28;7250;-66
2023/10/27 05:10:15;;;;;;;;;;;;;;;26.60;43.53;92298.16;5049445;28;6972;-65
2023/10/27 05:12:44;;;;;;;;;;;;;;;26.59;43.40;92297.41;5033285;28;7073;-65
2023/10/27 05:15:11;;;;;;;;;;;;;;;26.58;43.41;92304.22;5026005;28;9252;-66
2023/10/27 05:17:38;;;;;;;;;;;;;;;26.59;43.53;92315.97;5032408;28;7152;-65
2023/10/27 05:20:05;;;;;;;;;;;;;;;26.55;43.73;92312.91;5047116;28;7098;-66
2023/10/27 05:22:34;;;;;;;;;;;;;;;26.60;43.87;92309.19;5054576;28;7055;-65
2023/10/27 05:25:05;;;;;;;;;;;;;;;26.58;43.29;92315.25;5051170;28;8852;-66
2023/10/27 05:27:31;;;;;;;;;;;;;;;26.59;43.63;92316.72;5033576;28;7058;-65
2023/10/27 05:30:00;;;;;;;;;;;;;;;26.59;43.48;92313.22;5051532;28;8426;-65
2023/10/27 05:32:26;;;;;;;;;;;;;;;26.60;43.60;92320.22;5052283;28;9012;-65
2023/10/27 05:34:53;;;;;;;;;;;;;;;26.59;43.80;92322.22;5055304;28;6990;-66
2023/10/27 05:37:26;;;;;;;;;;;;;;;26.57;43.48;92327.56;5045961;28;7156;-65
2023/10/27 05:39:52;;;;;;;;;;;;;;;26.60;43.47;92331.22;5043887;28;7375;-65
2023/10/27 05:42:18;;;;;;;;;;;;;;;26.57;43.59;92326.84;5046452;28;7236;-65
2023/10/27 05:44:44;;;;;;;;;;;;;;;26.57;43.89;92326.84;5034861;28;7854;-65
2023/10/27 05:47:19;;;;;;;;;;;;;;;26.60;43.10;92331.22;5042541;28;7271;-65
2023/10/27 05:49:53;;;;;;;;;;;;;;;26.62;43.63;92320.38;5044234;28;7407;-66
2023/10/27 05:52:29;;;;;;;;;;;;;;;26.61;43.08;92325.16;5054580;28;7075;-65
2023/10/27 05:54:55;;;;;;;;;;;;;;;26.62;43.83;92325.88;5026068;28;7229;-65
2023/10/27 05:57:22;;;;;;;;;;;;;;;26.65;43.67;92328.22;5055552;28;7225;-65
2023/10/27 06:00:08;;;;;;;;;;;;;;;26.68;43.34;92327.09;5038297;28;7369;-65
2023/10/27 06:02:42;;;;;;;;;;;;;;;26.72;43.20;92324.66;5056539;28;7247;-66
2023/10/27 06:05:18;;;;;;;;;;;;;;;26.76;43.74;92327.78;5054467;28;7078;-62
2023/10/27 06:07:49;;;;;;;;;;;;;;;26.80;43.57;92341.16;5034388;28;8738;-63
2023/10/27 06:10:15;;;;;;;;;;;;;;;26.82;43.71;92347.56;5030639;28;8744;-63
2023/10/27 06:13:02;;;;;;;;;;;;;;;26.88;43.12;92359.06;5021953;28;6984;-63
2023/10/27 06:15:30;;;;;;;;;;;;;;;26.89;43.12;92365.34;5037138;28;9567;-63
2023/10/27 06:18:14;;;;;;;;;;;;;;;26.89;43.03;92374.34;5046775;28;7229;-62
2023/10/27 06:21:15;;;;;;;;;;;;;;;26.93;42.99;92379.44;5049139;28;7278;-63
2023/10/27 06:23:41;;;;;;;;;;;;;;;26.94;42.97;92389.19;4975244;28;8781;-63
2023/10/27 06:26:11;;;;;;;;;;;;;;;26.96;42.81;92394.13;4958793;28;7744;-62
2023/10/27 06:28:37;;;;;;;;;;;;;;;26.95;42.93;92387.88;4971916;28;7345;-63
2023/10/27 06:31:05;;;;;;;;;;;;;;;26.98;42.85;92386.03;4971371;28;7037;-63
2023/10/27 06:33:33;;;;;;;;;;;;;;;26.97;42.92;92399.06;4974091;28;9251;-62
2023/10/27 06:36:10;;;;;;;;;;;;;;;26.98;43.03;92405.34;4963469;28;7358;-62
2023/10/27 06:38:36;;;;;;;;;;;;;;;27.00;42.83;92405.50;4971554;28;7307;-62
2023/10/27 06:41:03;;;;;;;;;;;;;;;26.99;42.79;92415.78;4953730;28;7239;-62
2023/10/27 06:43:40;;;;;;;;;;;;;;;26.98;43.43;92417.09;4956323;28;7217;-62
2023/10/27 06:46:25;;;;;;;;;;;;;;;26.97;42.90;92426.66;4967783;28;7217;-61
2023/10/27 06:49:00;;;;;;;;;;;;;;;27.00;42.86;92442.09;4955546;28;7248;-62
2023/10/27 06:51:28;;;;;;;;;;;;;;;26.98;42.72;92444.69;4960129;28;7072;-62
2023/10/27 06:54:00;;;;;;;;;;;;;;;26.99;42.64;92453.72;4949036;28;7709;-62
2023/10/27 06:56:37;;;;;;;;;;;;;;;27.01;42.64;92468.41;4971792;28;8766;-62
2023/10/27 06:59:03;;;;;;;;;;;;;;;27.02;42.59;92466.34;4988222;28;6971;-62
2023/10/27 07:01:36;;;;;;;;;;;;;;;27.07;42.32;92471.66;5059031;28;8783;-62
2023/10/27 07:04:08;;;;;;;;;;;;;;;27.12;42.85;92478.94;5036667;28;7257;-62
2023/10/27 07:06:49;;;;;;;;;;;;;;;27.15;41.68;92480.59;5053373;28;7291;-62
2023/10/27 07:09:18;;;;;;;;;;;;;;;27.19;41.50;92486.44;5049714;28;7464;-63
2023/10/27 07:11:46;;;;;;;;;;;;;;;27.20;41.21;92490.66;5040327;28;7239;-63
2023/10/27 07:14:14;;;;;;;;;;;;;;;27.23;41.59;92483.28;5048095;28;7260;-62
2023/10/27 07:16:51;;;;;;;;;;;;;;;27.29;41.50;92492.06;5054164;28;9064;-62
2023/10/27 07:19:37;;;;;;;;;;;;;;;27.31;41.62;92501.22;5032413;28;7297;-62
2023/10/27 07:22:04;;;;;;;;;;;;;;;27.33;41.52;92500.66;5055641;28;8876;-62
2023/10/27 07:24:32;;;;;;;;;;;;;;;27.39;41.43;92499.16;5039694;28;6972;-62
2023/10/27 07:27:02;;;;;;;;;;;;;;;27.40;41.04;92486.81;5035581;28;7262;-62
2023/10/27 07:29:31;;;;;;;;;;;;;;;27.42;41.58;92489.75;5035331;28;7481;-62
2023/10/27 07:31:59;;;;;;;;;;;;;;;27.43;41.03;92488.44;5054422;28;8879;-62
2023/10/27 07:34:48;;;;;;;;;;;;;;;27.49;41.24;92493.72;5037869;28;8882;-62
2023/10/27 07:37:14;;;;;;;;;;;;;;;27.52;41.13;92493.31;5039556;28;7286;-62
2023/10/27 07:40:06;;;;;;;;;;;;;;;27.53;41.33;92499.56;5043326;28;7271;-63
2023/10/27 07:42:41;;;;;;;;;;;;;;;27.55;41.15;92500.47;5016317;28;7056;-63
2023/10/27 07:45:11;;;;;;;;;;;;;;;27.58;40.78;92504.09;5006439;28;7037;-63
2023/10/27 07:47:36;;;;;;;;;;;;;;;27.56;41.73;92496.38;5010357;28;8712;-63
2023/10/27 07:50:06;;;;;;;;;;;;;;;27.58;40.78;92493.03;4996361;28;7277;-62
2023/10/27 07:52:39;;;;;;;;;;;;;;;27.59;40.32;92500.78;5016620;28;7062;-63
2023/10/27 07:55:23;;;;;;;;;;;;;;;27.60;41.04;92505.00;4986865;28;8785;-62
2023/10/27 07:57:50;;;;;;;;;;;;;;;27.59;40.90;92502.81;5009122;28;7073;-62
2023/10/27 08:00:18;;;;;;;;;;;;;;;27.62;40.68;92507.19;5006643;28;9148;-62
2023/10/27 08:02:44;;;;;;;;;;;;;;;27.59;40.86;92514.59;4997837;28;6970;-62
2023/10/27 08:05:42;;;;;;;;;;;;;;;27.61;41.15;92512.00;5006049;28;7192;-62
2023/10/27 08:08:25;;;;;;;;;;;;;;;27.62;41.08;92512.72;4990169;28;6965;-62
2023/10/27 08:10:59;;;;;;;;;;;;;;;27.61;41.09;92519.53;4992680;28;7224;-62
2023/10/27 08:13:39;;;;;;;;;;;;;;;27.61;40.99;92525.78;4999654;28;7203;-62
2023/10/27 08:16:16;;;;;;;;;;;;;;;27.60;41.43;92529.09;5008457;28;9088;-63
2023/10/27 08:18:42;;;;;;;;;;;;;;;27.60;41.50;92534.63;5009809;28;7342;-62
2023/10/27 08:21:17;;;;;;;;;;;;;;;27.57;41.45;92528.25;5040108;28;6979;-62
2023/10/27 08:23:44;;;;;;;;;;;;;;;27.58;41.70;92537.22;5035093;28;8800;-56
2023/10/27 08:26:10;;;;;;;;;;;;;;;27.59;41.69;92542.22;5035294;28;7216;-55
2023/10/27 08:28:40;;;;;;;;;;;;;;;27.58;41.35;92543.50;5054530;28;7104;-55
2023/10/27 08:31:16;;;;;;;;;;;;;;;27.57;41.43;92546.84;5035152;28;7211;-56
2023/10/27 08:33:44;;;;;;;;;;;;;;;27.57;41.41;92544.81;5052813;28;7234;-55
2023/10/27 08:36:14;;;;;;;;;;;;;;;27.57;41.64;92542.03;5021685;28;7257;-55
2023/10/27 08:38:41;;;;;;;;;;;;;;;27.59;41.80;92547.00;5036094;28;8900;-55
2023/10/27 08:41:09;;;;;;;;;;;;;;;27.58;41.87;92545.53;5044859;28;7330;-56
2023/10/27 08:43:46;;;;;;;;;;;;;;;27.54;42.01;92537.66;5047378;28;7230;-55
2023/10/27 08:46:13;;;;;;;;;;;;;;;27.56;41.75;92545.34;5038172;28;7779;-55
2023/10/27 08:48:41;;;;;;;;;;;;;;;27.56;41.80;92537.81;5044848;28;7237;-55
2023/10/27 08:51:09;;;;;;;;;;;;;;;27.56;41.49;92532.28;5052489;28;7254;-56
2023/10/27 08:53:43;;;;;;;;;;;;;;;27.55;41.88;92524.56;5032546;28;7365;-55
2023/10/27 08:56:28;;;;;;;;;;;;;;;27.53;42.05;92529.94;5019638;28;9053;-55
2023/10/27 08:58:55;;;;;;;;;;;;;;;27.54;41.94;92528.63;5039609;28;9510;-55
2023/10/27 09:01:28;;;;;;;;;;;;;;;27.54;41.93;92529.38;5057592;28;7275;-56
2023/10/27 09:04:24;;;;;;;;;;;;;;;27.53;41.91;92530.66;5035961;28;7192;-55
2023/10/27 09:07:00;;;;;;;;;;;;;;;27.54;42.13;92540.41;5034092;28;7000;-55
2023/10/27 09:09:58;;;;;;;;;;;;;;;27.54;41.69;92550.72;5039732;28;7236;-55
2023/10/27 09:12:39;;;;;;;;;;;;;;;27.52;41.79;92551.28;4955108;28;7243;-55
2023/10/27 09:15:45;;;;;;;;;;;;;;;27.53;41.94;92561.03;4945818;28;7189;-55
2023/10/27 09:18:35;;;;;;;;;;;;;;;27.52;41.95;92567.88;4905954;29;9038;-55
2023/10/27 09:21:12;;;;;;;;;;;;;;;27.50;42.37;92567.69;4912880;29;7239;-55
2023/10/27 09:23:52;;;;;;;;;;;;;;;27.52;41.99;92570.63;4910877;29;9089;-54
2023/10/27 09:26:18;;;;;;;;;;;;;;;27.49;42.54;92571.75;4917739;29;6985;-55
2023/10/27 09:29:03;;;;;;;;;;;;;;;27.50;42.61;92567.69;4917187;29;7265;-55
2023/10/27 09:31:38;;;;;;;;;;;;;;;27.47;42.96;92571.59;4899947;29;8692;-55
2023/10/27 09:34:26;;;;;;;;;;;;;;;27.48;42.49;92572.31;4913675;29;7183;-61
2023/10/27 09:37:17;;;;;;;;;;;;;;;27.48;42.39;92581.34;4902112;29;7486;-61
2023/10/27 09:39:45;;;;;;;;;;;;;;;27.44;41.92;92581.03;4898830;29;9165;-61
2023/10/27 09:42:22;;;;;;;;;;;;;;;27.45;42.15;92581.72;4916025;29;7394;-61
2023/10/27 09:44:59;;;;;;;;;;;;;;;27.45;42.42;92590.75;4913276;29;7051;-61
2023/10/27 09:47:47;;;;;;;;;;;;;;;27.44;42.53;92585.81;4900821;29;7709;-61
2023/10/27 09:50:25;;;;;;;;;;;;;;;27.44;42.27;92583.78;4967170;28;7348;-62
2023/10/27 09:53:02;;;;;;;;;;;;;;;27.44;42.13;92592.06;4981784;28;7250;-62
2023/10/27 09:55:33;;;;;;;;;;;;;;;27.39;42.54;92595.78;5030296;28;7313;-61
2023/10/27 09:58:27;;;;;;;;;;;;;;;27.43;42.61;92609.91;5044828;28;8699;-61
2023/10/27 10:01:15;;;;;;;;;;;;;;;27.39;42.37;92606.81;5040030;28;8963;-61
2023/10/27 10:04:08;;;;;;;;;;;;;;;27.40;42.36;92608.31;5045002;28;8554;-61
2023/10/27 10:06:55;;;;;;;;;;;;;;;27.39;42.42;92623.38;4977002;28;8809;-61
2023/10/27 10:09:23;;;;;;;;;;;;;;;27.41;42.61;92620.06;4958302;28;9043;-61
2023/10/27 10:11:54;;;;;;;;;;;;;;;27.43;42.79;92625.75;4957054;28;7224;-61
2023/10/27 10:14:55;;;;;;;;;;;;;;;27.41;42.64;92634.59;4956258;28;9101;-61
2023/10/27 10:18:06;;;;;;;;;;;;;;;27.40;42.58;92630.38;4955254;28;7239;-61
2023/10/27 10:21:17;;;;;;;;;;;;;;;27.41;42.53;92611.78;4976513;28;7287;-62
2023/10/27 10:24:14;;;;;;;;;;;;;;;27.41;42.77;92609.00;4961709;28;7882;-61
2023/10/27 10:27:05;;;;;;;;;;;;;;;27.39;42.85;92609.59;4954977;28;8787;-61
2023/10/27 10:29:48;;;;;;;;;;;;;;;27.38;42.96;92613.63;4968443;28;7268;-61
2023/10/27 10:33:11;;;;;;;;;;;;;;;27.39;42.99;92617.88;4968324;28;7219;-61
2023/10/27 10:35:40;;;;;;;;;;;;;;;27.40;42.78;92591.72;4972384;28;7234;-61
2023/10/27 10:38:22;;;;;;;;;;;;;;;27.42;42.90;92602.22;4970258;28;8193;-61
2023/10/27 10:40:55;;;;;;;;;;;;;;;27.40;43.05;92596.50;4970305;28;7240;-61
2023/10/27 10:44:11;;;;;;;;;;;;;;;27.42;42.98;92586.38;4962672;28;7564;-62
2023/10/27 10:47:15;;;;;;;;;;;;;;;27.43;43.04;92578.81;4935205;28;8775;-55
2023/10/27 10:49:52;;;;;;;;;;;;;;;27.42;42.69;92577.34;4915609;29;6986;-56
2023/10/27 10:52:33;;;;;;;;;;;;;;;27.44;42.70;92581.03;4932104;28;8991;-55
2023/10/27 10:55:01;;;;;;;;;;;;;;;27.44;42.78;92586.53;4932435;28;8771;-55
2023/10/27 10:57:29;;;;;;;;;;;;;;;27.44;42.47;92581.03;4920570;29;9033;-55
2023/10/27 10:59:59;;;;;;;;;;;;;;;27.45;42.23;92576.94;4938229;28;9119;-55
2023/10/27 11:02:45;;;;;;;;;;;;;;;27.47;42.81;92562.59;4960048;28;7412;-55
2023/10/27 11:05:37;;;;;;;;;;;;;;;27.47;42.44;92560.53;4970958;28;7000;-55
2023/10/27 11:08:10;;;;;;;;;;;;;;;27.50;42.52;92566.97;4957121;28;7503;-56
2023/10/27 11:10:49;;;;;;;;;;;;;;;27.45;42.57;92563.13;4970769;28;9152;-56
2023/10/27 11:13:28;;;;;;;;;;;;;;;27.48;42.68;92566.81;4959317;28;7150;-56
2023/10/27 11:15:55;;;;;;;;;;;;;;;27.47;41.79;92559.84;4964847;28;9008;-56
2023/10/27 11:18:32;;;;;;;;;;;;;;;27.43;42.63;92560.22;4970794;28;8287;-56
2023/10/27 11:21:00;;;;;;;;;;;;;;;27.45;42.72;92563.13;5008013;28;6992;-56
2023/10/27 11:23:27;;;;;;;;;;;;;;;27.44;42.21;92561.69;5055880;28;7212;-56
2023/10/27 11:26:04;;;;;;;;;;;;;;;27.43;42.53;92562.25;5041176;28;7093;-56
2023/10/27 11:28:40;;;;;;;;;;;;;;;27.45;42.43;92556.88;5050583;28;8257;-56
2023/10/27 11:31:27;;;;;;;;;;;;;;;27.42;42.58;92560.78;5024393;28;6993;-56
2023/10/27 11:34:12;;;;;;;;;;;;;;;27.43;42.34;92546.41;5036753;28;8680;-56
2023/10/27 11:37:01;;;;;;;;;;;;;;;27.48;42.47;92558.50;5028657;28;7036;-56
2023/10/27 11:39:50;;;;;;;;;;;;;;;27.49;42.81;92565.50;5037999;28;9058;-56
2023/10/27 11:42:27;;;;;;;;;;;;;;;27.47;42.22;92560.53;5044458;28;6991;-56
2023/10/27 11:44:57;;;;;;;;;;;;;;;27.37;42.33;92548.69;5026323;28;7248;-56
2023/10/27 11:47:25;;;;;;;;;;;;;;;27.52;42.25;92561.59;5040133;28;7048;-55
2023/10/27 11:50:09;;;;;;;;;;;;;;;27.62;42.34;92568.66;5038627;28;7268;-55
2023/10/27 11:52:37;;;;;;;;;;;;;;;27.69;41.93;92555.38;5033555;28;7236;-55
2023/10/27 11:55:30;;;;;;;;;;;;;;;27.69;42.14;92558.84;5032326;28;8363;-55
2023/10/27 11:57:58;;;;;;;;;;;;;;;27.73;41.79;92556.41;5053497;28;7021;-55
2023/10/27 12:00:43;;;;;;;;;;;;;;;27.79;41.77;92551.41;5047810;28;7151;-55
2023/10/27 12:03:22;;;;;;;;;;;;;;;27.79;42.18;92550.66;5029719;28;9482;-55
2023/10/27 12:06:07;;;;;;;;;;;;;;;27.76;41.65;92557.31;5035760;28;7069;-55
2023/10/27 12:08:33;;;;;;;;;;;;;;;27.74;41.71;92557.16;5040282;28;7253;-55
2023/10/27 12:11:17;;;;;;;;;;;;;;;27.75;42.24;92561.38;5056622;28;7256;-55
2023/10/27 12:13:57;;;;;;;;;;;;;;;27.73;41.81;92559.16;5025618;28;9042;-55
2023/10/27 12:16:42;;;;;;;;;;;;;;;27.74;42.19;92551.63;5040722;28;7225;-55
2023/10/27 12:19:13;;;;;;;;;;;;;;;27.75;41.63;92553.09;5054959;28;7187;-55
2023/10/27 12:21:49;;;;;;;;;;;;;;;27.75;41.93;92553.84;5052708;28;8724;-56
2023/10/27 12:24:45;;;;;;;;;;;;;;;27.76;41.93;92554.53;5059853;28;7851;-56
2023/10/27 12:27:12;;;;;;;;;;;;;;;27.78;41.92;92557.47;4960571;28;6981;-55
2023/10/27 12:29:54;;;;;;;;;;;;;;;27.79;41.75;92554.16;4953557;28;7266;-55
2023/10/27 12:32:21;;;;;;;;;;;;;;;27.80;41.69;92555.59;4955080;28;9101;-56
2023/10/27 12:35:06;;;;;;;;;;;;;;;27.79;41.92;92554.16;4951771;28;7934;-56
2023/10/27 12:37:48;;;;;;;;;;;;;;;27.81;42.13;92559.09;4942290;28;7081;-55
2023/10/27 12:40:15;;;;;;;;;;;;;;;27.84;41.76;92566.25;4949071;28;7271;-55
2023/10/27 12:42:46;;;;;;;;;;;;;;;27.83;42.29;92562.03;4949818;28;7100;-56
2023/10/27 12:45:14;;;;;;;;;;;;;;;27.86;42.16;92563.66;4935057;28;7089;-56
2023/10/27 12:47:48;;;;;;;;;;;;;;;27.87;42.32;92563.09;4933330;28;7284;-56
2023/10/27 12:50:15;;;;;;;;;;;;;;;27.89;42.49;92573.56;4937321;28;8073;-56
2023/10/27 12:52:42;;;;;;;;;;;;;;;27.90;43.03;92570.25;4949471;28;7255;-56
2023/10/27 12:55:11;;;;;;;;;;;;;;;27.92;42.25;92575.19;4950733;28;6984;-56
2023/10/27 12:57:38;;;;;;;;;;;;;;;27.92;42.71;92575.94;4950480;28;7224;-56
2023/10/27 13:00:20;;;;;;;;;;;;;;;27.97;42.50;92574.22;4950400;28;8769;-55
2023/10/27 13:02:51;;;;;;;;;;;;;;;27.99;42.64;92568.88;4964275;28;6994;-56
2023/10/27 13:05:19;;;;;;;;;;;;;;;28.01;42.83;92580.09;5045102;28;9173;-61
2023/10/27 13:08:01;;;;;;;;;;;;;;;28.02;42.76;92578.78;5049142;28;9072;-61
2023/10/27 13:10:30;;;;;;;;;;;;;;;28.05;43.17;92586.69;5045137;28;7029;-61
2023/10/27 13:13:00;;;;;;;;;;;;;;;28.05;42.86;92580.41;5034986;28;7340;-61
2023/10/27 13:15:27;;;;;;;;;;;;;;;28.05;42.68;92578.38;5034645;28;8864;-61
2023/10/27 13:17:59;;;;;;;;;;;;;;;28.06;42.52;92576.34;5053246;28;7422;-61
2023/10/27 13:20:34;;;;;;;;;;;;;;;28.09;42.50;92570.41;5033230;28;9137;-61
2023/10/27 13:23:16;;;;;;;;;;;;;;;28.10;42.89;92582.91;5049127;28;7363;-61
2023/10/27 13:26:04;;;;;;;;;;;;;;;28.13;43.08;92586.56;5029492;28;6982;-61
2023/10/27 13:28:31;;;;;;;;;;;;;;;28.14;42.34;92590.81;5049986;28;7233;-62
2023/10/27 13:31:23;;;;;;;;;;;;;;;28.14;42.29;92585.28;5052325;28;7240;-61
2023/10/27 13:34:01;;;;;;;;;;;;;;;28.16;42.25;92585.44;5030911;28;7237;-61
2023/10/27 13:36:46;;;;;;;;;;;;;;;28.16;42.46;92591.72;5034693;28;7274;-61
2023/10/27 13:39:43;;;;;;;;;;;;;;;28.17;42.97;92593.16;5037722;28;6997;-61
2023/10/27 13:42:39;;;;;;;;;;;;;;;28.19;42.69;92595.34;4992902;28;9091;-60
2023/10/27 13:45:07;;;;;;;;;;;;;;;28.22;42.78;92605.28;4934264;28;8764;-61